This is the latest recevied weather packets stored in our database for station/object LRBV. If no packets are shown the sender has not sent any weather packets the latest 10 day(s).
| Time | Temp. | Humidity | Pressure | Rain* | Wind** | Luminosity | Snow |
|---|---|---|---|---|---|---|---|
| 1777502031 | 2.78° C | 87% | 1022 hPa | - | - | - | - |
| 1777501131 | 2.78° C | 87% | 1022 hPa | - | - | - | - |
| 1777500231 | 2.78° C | 87% | 1022 hPa | - | - | - | - |
| 1777499331 | 2.78° C | 87% | 1022 hPa | - | - | - | - |
| 1777498430 | 2.78° C | 87% | 1022 hPa | - | - | - | - |
| 1777495731 | 3.89° C | 81% | 1022 hPa | - | - | - | - |
| 1777494831 | 3.89° C | 81% | 1022 hPa | - | - | - | - |
| 1777493030 | 3.89° C | 87% | 1021 hPa | - | - | - | - |
| 1777492131 | 3.89° C | 87% | 1021 hPa | - | - | - | - |
| 1777491230 | 3.89° C | 87% | 1021 hPa | - | - | - | - |
| 1777490330 | 6.11° C | 76% | 1021 hPa | - | - | - | - |
| 1777489431 | 6.11° C | 76% | 1021 hPa | - | - | - | - |
| 1777488532 | 6.11° C | 76% | 1020 hPa | - | - | - | - |
| 1777487630 | 6.11° C | 76% | 1020 hPa | - | - | - | - |
| 1777486731 | 6.11° C | 76% | 1019 hPa | - | - | - | - |
| 1777485830 | 6.11° C | 76% | 1019 hPa | - | - | - | - |
| 1777484931 | 7.78° C | 62% | 1019 hPa | - | - | - | - |
| 1777484031 | 7.78° C | 62% | 1019 hPa | - | - | - | - |
| 1777483127 | 8.89° C | 58% | 1018 hPa | - | - | - | - |
| 1777482231 | 8.89° C | 58% | 1018 hPa | - | - | - | - |
| 1777481330 | 10° C | 54% | 1017 hPa | - | - | - | - |
| 1777480431 | 10° C | 54% | 1017 hPa | - | - | - | - |
| 1777479533 | 11.11° C | 54% | 1017 hPa | - | - | - | - |
| 1777478630 | 11.11° C | 54% | 1017 hPa | - | - | - | - |
| 1777476831 | 12.22° C | 54% | 1017 hPa | - | - | - | - |
* Rain since midnight (hover to see other rain measurements)
** Current wind speed in m/s (hover to see current wind gust speed)